Accueil
METAR-TAF:

METAR-TAF

Aéroports :

Nakhon Ratchasima, Thaïlande

latitude: 14-56-58N, longitude: 102-18-45E, altitude: 233 m

Observation

Le bulletin a été fait il y a 6 heures et 30 minutes, à 14:00 UTC
Vent 5 kt de sud/sud-ouest
Température 26°C
Humidité 94%
Pression 1006 hPa
Visibilité: 9000 m
Nuages épars à une hauteur de 3500 ft
Nuages fragmentés à une hauteur de 8000 ft
pluie faible,

METAR: VTUQ 241400Z 20005KT 9000 -RA SCT035 BKN080 26/25 Q1006 NOSIG

Heure: 03:30 (20:30 UTC)

Prévision

Le bulletin a été fait il y a 3 heures et 30 minutes, à 17:00 UTC
Prévision valable du 24 à 18 UTC au 25 à 18 UTC
Vent 5 kt de sud/sud-ouest
Visibilité: 8000 m
Nuages épars à une hauteur de 2500 ft

TAF: VTUQ 241700Z 2418/2518 20005KT 8000 SCT025

Observations et prévisions météorologiques de plus de 4000 aéroports (messages METAR et TAF).

Les stations disponibles sont représentées par des disques jaunes et rouges sur la carte.

Passer la souris dessus pour voir le nom de la station.

Cliquer dessus pour voir les observations et prévisions météorologiques.

Pour changer de carte: cliquez sur les boutons verts avec une croix noire pour zoomer, sur le bouton vert avec un tiret pour effectuer un zoom arrière, ou sur les flèches vertes pour les cartes adjacentes.


METAR-TAF: